Terminal Aerodrome Forecast
Issued by NWS

Home | Current Version | Previous Version | Graphics & Text | Print | Product List | Glossary On
Versions: 1 2 3 4 5 6 7 8 9 10 11 12
010
FTUS43 KICT 081128
TAFSLN
TAF
KSLN 081128Z 0812/0912 31021KT P6SM SCT060
     FM081600 33029G39KT P6SM FEW050
     FM090000 33019G27KT P6SM SCT250
     FM090300 32013KT P6SM SCT250=

USA.gov is the U.S. government's official web portal to all federal, state and local government web resources and services.